sensor_id;sensor_type;location;lat;lon;timestamp;temperature;humidity
13896;DHT22;7018;50.838;4.226;2022-09-03T00:02:12;19.30;99.90
13896;DHT22;7018;50.838;4.226;2022-09-03T00:07:46;19.20;99.90
13896;DHT22;7018;50.838;4.226;2022-09-03T00:10:52;19.20;99.90
13896;DHT22;7018;50.838;4.226;2022-09-03T00:13:31;19.10;99.90
13896;DHT22;7018;50.838;4.226;2022-09-03T00:16:00;19.10;99.90
13896;DHT22;7018;50.838;4.226;2022-09-03T00:18:32;19.10;99.90
13896;DHT22;7018;50.838;4.226;2022-09-03T00:21:08;19.10;99.90
13896;DHT22;7018;50.838;4.226;2022-09-03T00:23:40;19.20;99.90
13896;DHT22;7018;50.838;4.226;2022-09-03T00:28:56;19.40;99.90
13896;DHT22;7018;50.838;4.226;2022-09-03T00:31:32;19.40;99.90
13896;DHT22;7018;50.838;4.226;2022-09-03T00:34:15;19.30;99.90
13896;DHT22;7018;50.838;4.226;2022-09-03T00:36:46;19.30;99.90
13896;DHT22;7018;50.838;4.226;2022-09-03T00:39:20;19.30;99.90
13896;DHT22;7018;50.838;4.226;2022-09-03T00:55:38;19.20;99.90
13896;DHT22;7018;50.838;4.226;2022-09-03T01:00:56;19.20;99.90
13896;DHT22;7018;50.838;4.226;2022-09-03T01:03:31;19.20;99.90
13896;DHT22;7018;50.838;4.226;2022-09-03T01:06:37;19.20;99.90
13896;DHT22;7018;50.838;4.226;2022-09-03T01:17:51;19.10;99.90
13896;DHT22;7018;50.838;4.226;2022-09-03T01:20:37;19.10;99.90
13896;DHT22;7018;50.838;4.226;2022-09-03T01:39:41;18.80;99.90
13896;DHT22;7018;50.838;4.226;2022-09-03T01:45:28;18.70;99.90
13896;DHT22;7018;50.838;4.226;2022-09-03T01:59:47;18.80;99.90
13896;DHT22;7018;50.838;4.226;2022-09-03T02:02:19;18.70;99.90
13896;DHT22;7018;50.838;4.226;2022-09-03T02:05:07;18.70;99.90
13896;DHT22;7018;50.838;4.226;2022-09-03T02:07:38;18.70;99.90
13896;DHT22;7018;50.838;4.226;2022-09-03T02:10:10;18.70;99.90
13896;DHT22;7018;50.838;4.226;2022-09-03T02:12:38;18.70;99.90
13896;DHT22;7018;50.838;4.226;2022-09-03T02:15:15;18.70;99.90
13896;DHT22;7018;50.838;4.226;2022-09-03T02:17:44;18.80;99.90
13896;DHT22;7018;50.838;4.226;2022-09-03T02:20:19;18.80;99.90
13896;DHT22;7018;50.838;4.226;2022-09-03T02:22:49;18.80;99.90
13896;DHT22;7018;50.838;4.226;2022-09-03T02:25:16;18.70;99.90
13896;DHT22;7018;50.838;4.226;2022-09-03T02:27:44;18.80;99.90
13896;DHT22;7018;50.838;4.226;2022-09-03T02:30:12;18.80;99.90
13896;DHT22;7018;50.838;4.226;2022-09-03T02:32:39;18.90;99.90
13896;DHT22;7018;50.838;4.226;2022-09-03T02:35:06;18.90;99.90
13896;DHT22;7018;50.838;4.226;2022-09-03T02:37:33;18.90;99.90
13896;DHT22;7018;50.838;4.226;2022-09-03T02:40:01;19.00;99.90
13896;DHT22;7018;50.838;4.226;2022-09-03T02:42:31;18.90;99.90
13896;DHT22;7018;50.838;4.226;2022-09-03T02:45:26;18.90;99.90
13896;DHT22;7018;50.838;4.226;2022-09-03T02:47:59;18.90;99.90
13896;DHT22;7018;50.838;4.226;2022-09-03T02:50:26;18.80;99.90
13896;DHT22;7018;50.838;4.226;2022-09-03T02:52:53;18.70;99.90
13896;DHT22;7018;50.838;4.226;2022-09-03T02:55:20;18.60;99.90
13896;DHT22;7018;50.838;4.226;2022-09-03T02:57:48;18.60;99.90
13896;DHT22;7018;50.838;4.226;2022-09-03T03:00:16;18.60;99.90
13896;DHT22;7018;50.838;4.226;2022-09-03T03:02:44;18.60;99.90
13896;DHT22;7018;50.838;4.226;2022-09-03T03:05:19;18.60;99.90
13896;DHT22;7018;50.838;4.226;2022-09-03T03:07:47;18.60;99.90
13896;DHT22;7018;50.838;4.226;2022-09-03T03:10:14;18.60;99.90
13896;DHT22;7018;50.838;4.226;2022-09-03T03:12:42;18.60;99.90
13896;DHT22;7018;50.838;4.226;2022-09-03T03:15:09;18.60;99.90
13896;DHT22;7018;50.838;4.226;2022-09-03T03:17:36;18.60;99.90
13896;DHT22;7018;50.838;4.226;2022-09-03T03:20:03;18.60;99.90
13896;DHT22;7018;50.838;4.226;2022-09-03T03:22:30;18.60;99.90
13896;DHT22;7018;50.838;4.226;2022-09-03T03:24:58;18.60;99.90
13896;DHT22;7018;50.838;4.226;2022-09-03T03:27:25;18.60;99.90
13896;DHT22;7018;50.838;4.226;2022-09-03T03:29:53;18.60;99.90
13896;DHT22;7018;50.838;4.226;2022-09-03T03:32:20;18.60;99.90
13896;DHT22;7018;50.838;4.226;2022-09-03T03:34:48;18.70;99.90
13896;DHT22;7018;50.838;4.226;2022-09-03T03:37:16;18.70;99.90
13896;DHT22;7018;50.838;4.226;2022-09-03T03:39:43;18.70;99.90
13896;DHT22;7018;50.838;4.226;2022-09-03T03:42:11;18.50;99.90
13896;DHT22;7018;50.838;4.226;2022-09-03T03:44:40;18.50;99.90
13896;DHT22;7018;50.838;4.226;2022-09-03T03:47:10;18.40;99.90
13896;DHT22;7018;50.838;4.226;2022-09-03T03:49:38;18.50;99.90
13896;DHT22;7018;50.838;4.226;2022-09-03T03:52:06;18.50;99.90
13896;DHT22;7018;50.838;4.226;2022-09-03T03:54:36;18.50;99.90
13896;DHT22;7018;50.838;4.226;2022-09-03T03:57:03;18.40;99.90
13896;DHT22;7018;50.838;4.226;2022-09-03T03:59:30;18.50;99.90
13896;DHT22;7018;50.838;4.226;2022-09-03T04:01:58;18.50;99.90
13896;DHT22;7018;50.838;4.226;2022-09-03T04:04:25;18.60;99.90
13896;DHT22;7018;50.838;4.226;2022-09-03T04:06:53;18.40;99.90
13896;DHT22;7018;50.838;4.226;2022-09-03T04:09:21;18.40;99.90
13896;DHT22;7018;50.838;4.226;2022-09-03T04:11:48;18.50;99.90
13896;DHT22;7018;50.838;4.226;2022-09-03T04:14:16;18.40;99.90
13896;DHT22;7018;50.838;4.226;2022-09-03T04:16:44;18.50;99.90
13896;DHT22;7018;50.838;4.226;2022-09-03T04:19:12;18.50;99.90
13896;DHT22;7018;50.838;4.226;2022-09-03T04:21:40;18.60;99.90
13896;DHT22;7018;50.838;4.226;2022-09-03T04:24:08;18.50;99.90
13896;DHT22;7018;50.838;4.226;2022-09-03T04:26:36;18.40;99.90
13896;DHT22;7018;50.838;4.226;2022-09-03T04:29:06;18.20;99.90
13896;DHT22;7018;50.838;4.226;2022-09-03T04:31:36;18.10;99.90
13896;DHT22;7018;50.838;4.226;2022-09-03T04:34:04;18.00;99.90
13896;DHT22;7018;50.838;4.226;2022-09-03T04:36:32;18.00;99.90
13896;DHT22;7018;50.838;4.226;2022-09-03T04:39:01;17.90;99.90
13896;DHT22;7018;50.838;4.226;2022-09-03T04:41:30;18.00;99.90
13896;DHT22;7018;50.838;4.226;2022-09-03T04:43:58;18.00;99.90
13896;DHT22;7018;50.838;4.226;2022-09-03T04:46:28;18.10;99.90
13896;DHT22;7018;50.838;4.226;2022-09-03T04:49:02;18.10;99.90
13896;DHT22;7018;50.838;4.226;2022-09-03T04:51:29;18.20;99.90
13896;DHT22;7018;50.838;4.226;2022-09-03T04:54:01;18.10;99.90
13896;DHT22;7018;50.838;4.226;2022-09-03T04:56:34;18.10;99.90
13896;DHT22;7018;50.838;4.226;2022-09-03T04:59:04;18.10;99.90
13896;DHT22;7018;50.838;4.226;2022-09-03T05:01:34;18.10;99.90
13896;DHT22;7018;50.838;4.226;2022-09-03T05:04:03;18.20;99.90
13896;DHT22;7018;50.838;4.226;2022-09-03T05:06:32;18.20;99.90
13896;DHT22;7018;50.838;4.226;2022-09-03T05:09:04;18.30;99.90
13896;DHT22;7018;50.838;4.226;2022-09-03T05:11:32;18.30;99.90
13896;DHT22;7018;50.838;4.226;2022-09-03T05:14:01;18.20;99.90
13896;DHT22;7018;50.838;4.226;2022-09-03T05:16:28;18.20;99.90
13896;DHT22;7018;50.838;4.226;2022-09-03T05:18:58;18.20;99.90
13896;DHT22;7018;50.838;4.226;2022-09-03T05:21:28;18.30;99.90
13896;DHT22;7018;50.838;4.226;2022-09-03T05:23:59;18.30;99.90
13896;DHT22;7018;50.838;4.226;2022-09-03T05:26:32;18.40;99.90
13896;DHT22;7018;50.838;4.226;2022-09-03T05:29:01;18.40;99.90
13896;DHT22;7018;50.838;4.226;2022-09-03T05:31:36;18.30;99.90
13896;DHT22;7018;50.838;4.226;2022-09-03T05:34:08;18.40;99.90
13896;DHT22;7018;50.838;4.226;2022-09-03T05:36:37;18.40;99.90
13896;DHT22;7018;50.838;4.226;2022-09-03T05:39:05;18.40;99.90
13896;DHT22;7018;50.838;4.226;2022-09-03T05:41:33;18.40;99.90
13896;DHT22;7018;50.838;4.226;2022-09-03T05:44:02;18.30;99.90
13896;DHT22;7018;50.838;4.226;2022-09-03T05:46:31;18.30;99.90
13896;DHT22;7018;50.838;4.226;2022-09-03T05:49:04;18.30;99.90
13896;DHT22;7018;50.838;4.226;2022-09-03T05:51:33;18.30;99.90
13896;DHT22;7018;50.838;4.226;2022-09-03T05:54:01;18.30;99.90
13896;DHT22;7018;50.838;4.226;2022-09-03T05:56:31;18.30;99.90
13896;DHT22;7018;50.838;4.226;2022-09-03T05:59:01;18.40;99.90
13896;DHT22;7018;50.838;4.226;2022-09-03T06:04:07;18.40;99.90
13896;DHT22;7018;50.838;4.226;2022-09-03T06:06:37;18.50;99.90
13896;DHT22;7018;50.838;4.226;2022-09-03T06:09:06;18.70;99.90
13896;DHT22;7018;50.838;4.226;2022-09-03T06:11:35;18.60;99.90
13896;DHT22;7018;50.838;4.226;2022-09-03T06:14:08;18.50;99.90
13896;DHT22;7018;50.838;4.226;2022-09-03T06:16:47;18.60;99.90
13896;DHT22;7018;50.838;4.226;2022-09-03T06:19:15;18.70;99.90
13896;DHT22;7018;50.838;4.226;2022-09-03T06:21:45;18.70;99.90
13896;DHT22;7018;50.838;4.226;2022-09-03T06:24:23;18.70;99.90
13896;DHT22;7018;50.838;4.226;2022-09-03T06:26:57;18.70;99.90
13896;DHT22;7018;50.838;4.226;2022-09-03T06:29:25;18.70;99.90
13896;DHT22;7018;50.838;4.226;2022-09-03T06:31:53;18.80;99.90
13896;DHT22;7018;50.838;4.226;2022-09-03T06:34:22;18.90;99.90
13896;DHT22;7018;50.838;4.226;2022-09-03T06:36:51;19.00;99.90
13896;DHT22;7018;50.838;4.226;2022-09-03T06:39:19;19.20;99.90
13896;DHT22;7018;50.838;4.226;2022-09-03T06:41:47;19.20;99.90
13896;DHT22;7018;50.838;4.226;2022-09-03T06:44:17;19.10;99.90
13896;DHT22;7018;50.838;4.226;2022-09-03T06:46:45;19.20;99.90
13896;DHT22;7018;50.838;4.226;2022-09-03T06:49:14;19.20;99.90
13896;DHT22;7018;50.838;4.226;2022-09-03T06:51:41;19.20;99.90
13896;DHT22;7018;50.838;4.226;2022-09-03T06:54:11;19.30;99.90
13896;DHT22;7018;50.838;4.226;2022-09-03T06:56:39;19.50;99.90
13896;DHT22;7018;50.838;4.226;2022-09-03T06:59:09;19.60;99.90
13896;DHT22;7018;50.838;4.226;2022-09-03T07:01:38;19.60;99.90
13896;DHT22;7018;50.838;4.226;2022-09-03T07:04:07;19.40;99.90
13896;DHT22;7018;50.838;4.226;2022-09-03T07:06:39;19.40;99.90
13896;DHT22;7018;50.838;4.226;2022-09-03T07:09:10;19.40;99.90
13896;DHT22;7018;50.838;4.226;2022-09-03T07:11:38;19.40;99.90
13896;DHT22;7018;50.838;4.226;2022-09-03T07:14:13;19.50;99.90
13896;DHT22;7018;50.838;4.226;2022-09-03T07:16:40;19.60;99.90
13896;DHT22;7018;50.838;4.226;2022-09-03T07:19:09;19.80;99.90
13896;DHT22;7018;50.838;4.226;2022-09-03T07:21:37;19.70;99.90
13896;DHT22;7018;50.838;4.226;2022-09-03T07:24:05;19.70;99.90
13896;DHT22;7018;50.838;4.226;2022-09-03T07:26:35;19.80;99.90
13896;DHT22;7018;50.838;4.226;2022-09-03T07:29:06;19.90;99.90
13896;DHT22;7018;50.838;4.226;2022-09-03T07:31:38;19.90;99.90
13896;DHT22;7018;50.838;4.226;2022-09-03T07:34:08;19.90;99.90
13896;DHT22;7018;50.838;4.226;2022-09-03T07:36:46;20.00;99.90
13896;DHT22;7018;50.838;4.226;2022-09-03T07:39:17;20.00;99.90
13896;DHT22;7018;50.838;4.226;2022-09-03T07:41:45;19.90;99.90
13896;DHT22;7018;50.838;4.226;2022-09-03T07:44:14;19.80;99.90
13896;DHT22;7018;50.838;4.226;2022-09-03T07:46:46;19.80;99.90
13896;DHT22;7018;50.838;4.226;2022-09-03T07:49:17;19.90;99.90
13896;DHT22;7018;50.838;4.226;2022-09-03T07:51:45;19.90;99.90
13896;DHT22;7018;50.838;4.226;2022-09-03T07:54:16;20.10;99.90
13896;DHT22;7018;50.838;4.226;2022-09-03T07:56:44;20.10;99.90
13896;DHT22;7018;50.838;4.226;2022-09-03T07:59:11;20.10;99.90
13896;DHT22;7018;50.838;4.226;2022-09-03T08:01:39;20.20;99.90
13896;DHT22;7018;50.838;4.226;2022-09-03T08:04:07;20.40;99.90
13896;DHT22;7018;50.838;4.226;2022-09-03T08:06:35;20.40;99.90
13896;DHT22;7018;50.838;4.226;2022-09-03T08:09:06;20.50;99.90
13896;DHT22;7018;50.838;4.226;2022-09-03T08:11:39;20.60;99.90
13896;DHT22;7018;50.838;4.226;2022-09-03T08:14:08;20.70;99.90
13896;DHT22;7018;50.838;4.226;2022-09-03T08:16:42;20.80;99.90
13896;DHT22;7018;50.838;4.226;2022-09-03T08:19:10;20.90;99.90
13896;DHT22;7018;50.838;4.226;2022-09-03T08:21:40;21.10;99.90
13896;DHT22;7018;50.838;4.226;2022-09-03T08:24:09;21.20;99.90
13896;DHT22;7018;50.838;4.226;2022-09-03T08:26:39;21.20;99.90
13896;DHT22;7018;50.838;4.226;2022-09-03T08:29:13;21.30;99.90
13896;DHT22;7018;50.838;4.226;2022-09-03T08:31:41;21.30;99.90
13896;DHT22;7018;50.838;4.226;2022-09-03T08:34:09;21.40;99.90
13896;DHT22;7018;50.838;4.226;2022-09-03T08:36:38;21.40;99.90
13896;DHT22;7018;50.838;4.226;2022-09-03T08:39:08;21.40;99.90
13896;DHT22;7018;50.838;4.226;2022-09-03T08:42:04;21.60;99.90
13896;DHT22;7018;50.838;4.226;2022-09-03T08:57:42;21.80;99.90
13896;DHT22;7018;50.838;4.226;2022-09-03T09:00:13;21.90;99.90
13896;DHT22;7018;50.838;4.226;2022-09-03T09:05:50;22.00;99.90
13896;DHT22;7018;50.838;4.226;2022-09-03T09:09:06;22.00;99.90
13896;DHT22;7018;50.838;4.226;2022-09-03T09:14:43;22.40;99.90
13896;DHT22;7018;50.838;4.226;2022-09-03T09:20:28;22.50;99.90
13896;DHT22;7018;50.838;4.226;2022-09-03T09:23:07;22.60;99.90
13896;DHT22;7018;50.838;4.226;2022-09-03T09:25:45;22.80;99.90
13896;DHT22;7018;50.838;4.226;2022-09-03T09:28:22;22.70;99.90
13896;DHT22;7018;50.838;4.226;2022-09-03T09:30:51;22.80;99.90
13896;DHT22;7018;50.838;4.226;2022-09-03T09:33:20;22.80;99.90
13896;DHT22;7018;50.838;4.226;2022-09-03T09:35:47;22.90;99.90
13896;DHT22;7018;50.838;4.226;2022-09-03T09:38:29;22.90;99.90
13896;DHT22;7018;50.838;4.226;2022-09-03T09:41:14;23.00;99.90
13896;DHT22;7018;50.838;4.226;2022-09-03T09:43:42;23.00;99.90
13896;DHT22;7018;50.838;4.226;2022-09-03T09:46:14;23.20;99.90
13896;DHT22;7018;50.838;4.226;2022-09-03T09:48:53;23.30;99.90
13896;DHT22;7018;50.838;4.226;2022-09-03T09:51:24;23.40;99.90
13896;DHT22;7018;50.838;4.226;2022-09-03T09:54:17;23.40;99.90
13896;DHT22;7018;50.838;4.226;2022-09-03T09:56:56;23.60;99.90
13896;DHT22;7018;50.838;4.226;2022-09-03T09:59:24;23.70;99.90
13896;DHT22;7018;50.838;4.226;2022-09-03T10:04:39;23.60;99.90
13896;DHT22;7018;50.838;4.226;2022-09-03T10:07:28;23.70;99.90
13896;DHT22;7018;50.838;4.226;2022-09-03T10:10:17;23.80;99.90
13896;DHT22;7018;50.838;4.226;2022-09-03T10:13:03;24.10;99.90
13896;DHT22;7018;50.838;4.226;2022-09-03T10:16:02;24.20;99.90
13896;DHT22;7018;50.838;4.226;2022-09-03T10:18:57;24.30;99.90
13896;DHT22;7018;50.838;4.226;2022-09-03T10:21:31;24.60;99.90
13896;DHT22;7018;50.838;4.226;2022-09-03T10:24:24;24.80;99.90
13896;DHT22;7018;50.838;4.226;2022-09-03T10:26:53;24.90;99.90
13896;DHT22;7018;50.838;4.226;2022-09-03T10:29:23;24.90;99.90
13896;DHT22;7018;50.838;4.226;2022-09-03T10:32:09;24.80;99.90
13896;DHT22;7018;50.838;4.226;2022-09-03T10:34:48;24.70;99.90
13896;DHT22;7018;50.838;4.226;2022-09-03T10:40:39;24.80;99.90
13896;DHT22;7018;50.838;4.226;2022-09-03T10:43:21;25.00;99.90
13896;DHT22;7018;50.838;4.226;2022-09-03T10:46:15;25.20;99.90
13896;DHT22;7018;50.838;4.226;2022-09-03T10:51:26;25.20;99.90
13896;DHT22;7018;50.838;4.226;2022-09-03T11:00:01;25.80;99.90
13896;DHT22;7018;50.838;4.226;2022-09-03T11:05:20;25.40;99.90
13896;DHT22;7018;50.838;4.226;2022-09-03T11:07:53;25.30;99.90
13896;DHT22;7018;50.838;4.226;2022-09-03T11:13:09;25.40;99.90
13896;DHT22;7018;50.838;4.226;2022-09-03T11:15:41;25.60;99.90
13896;DHT22;7018;50.838;4.226;2022-09-03T11:18:24;25.50;99.90
13896;DHT22;7018;50.838;4.226;2022-09-03T11:20:56;25.40;99.90
13896;DHT22;7018;50.838;4.226;2022-09-03T11:23:35;25.40;99.90
13896;DHT22;7018;50.838;4.226;2022-09-03T11:26:11;25.30;99.90
13896;DHT22;7018;50.838;4.226;2022-09-03T11:28:42;25.10;99.90
13896;DHT22;7018;50.838;4.226;2022-09-03T11:37:05;25.10;99.90
13896;DHT22;7018;50.838;4.226;2022-09-03T11:39:35;25.20;99.90
13896;DHT22;7018;50.838;4.226;2022-09-03T11:42:10;25.50;99.90
13896;DHT22;7018;50.838;4.226;2022-09-03T11:44:41;25.70;99.90
13896;DHT22;7018;50.838;4.226;2022-09-03T11:47:56;25.90;99.90
13896;DHT22;7018;50.838;4.226;2022-09-03T11:50:23;26.00;99.90
13896;DHT22;7018;50.838;4.226;2022-09-03T11:53:06;26.00;99.90
13896;DHT22;7018;50.838;4.226;2022-09-03T11:58:37;26.00;99.90
13896;DHT22;7018;50.838;4.226;2022-09-03T12:01:10;25.90;99.90
13896;DHT22;7018;50.838;4.226;2022-09-03T12:03:47;25.80;99.90
13896;DHT22;7018;50.838;4.226;2022-09-03T12:06:44;25.90;99.90
13896;DHT22;7018;50.838;4.226;2022-09-03T12:09:38;26.00;99.90
13896;DHT22;7018;50.838;4.226;2022-09-03T12:15:05;26.10;99.90
13896;DHT22;7018;50.838;4.226;2022-09-03T12:17:56;26.30;99.90
13896;DHT22;7018;50.838;4.226;2022-09-03T12:20:58;26.50;99.90
13896;DHT22;7018;50.838;4.226;2022-09-03T12:23:40;26.60;99.90
13896;DHT22;7018;50.838;4.226;2022-09-03T12:26:22;26.70;99.90
13896;DHT22;7018;50.838;4.226;2022-09-03T12:28:57;26.90;99.90
13896;DHT22;7018;50.838;4.226;2022-09-03T12:31:30;26.80;99.90
13896;DHT22;7018;50.838;4.226;2022-09-03T12:34:08;26.80;99.90
13896;DHT22;7018;50.838;4.226;2022-09-03T12:36:43;26.70;99.90
13896;DHT22;7018;50.838;4.226;2022-09-03T12:39:16;26.60;99.90
13896;DHT22;7018;50.838;4.226;2022-09-03T12:41:55;26.70;99.90
13896;DHT22;7018;50.838;4.226;2022-09-03T12:47:09;26.40;99.90
13896;DHT22;7018;50.838;4.226;2022-09-03T12:50:04;26.20;99.90
13896;DHT22;7018;50.838;4.226;2022-09-03T12:52:37;26.30;99.90
13896;DHT22;7018;50.838;4.226;2022-09-03T12:55:52;26.40;99.90
13896;DHT22;7018;50.838;4.226;2022-09-03T12:58:19;26.50;99.90
13896;DHT22;7018;50.838;4.226;2022-09-03T13:01:03;26.60;99.90
13896;DHT22;7018;50.838;4.226;2022-09-03T13:06:09;26.80;99.90
13896;DHT22;7018;50.838;4.226;2022-09-03T13:08:48;26.70;99.90
13896;DHT22;7018;50.838;4.226;2022-09-03T13:11:19;26.70;99.90
13896;DHT22;7018;50.838;4.226;2022-09-03T13:14:03;26.80;99.90
13896;DHT22;7018;50.838;4.226;2022-09-03T13:16:42;26.70;99.90
13896;DHT22;7018;50.838;4.226;2022-09-03T13:32:37;28.00;99.90
13896;DHT22;7018;50.838;4.226;2022-09-03T13:35:26;27.90;99.90
13896;DHT22;7018;50.838;4.226;2022-09-03T13:40:48;27.40;99.90
13896;DHT22;7018;50.838;4.226;2022-09-03T13:46:15;26.90;99.90
13896;DHT22;7018;50.838;4.226;2022-09-03T13:48:44;27.00;99.90
13896;DHT22;7018;50.838;4.226;2022-09-03T13:51:38;27.20;99.90
13896;DHT22;7018;50.838;4.226;2022-09-03T13:54:33;27.30;99.90
13896;DHT22;7018;50.838;4.226;2022-09-03T14:00:13;27.00;99.90
13896;DHT22;7018;50.838;4.226;2022-09-03T14:15:07;26.70;99.90
13896;DHT22;7018;50.838;4.226;2022-09-03T14:18:07;26.70;99.90
13896;DHT22;7018;50.838;4.226;2022-09-03T14:20:45;26.70;99.90
13896;DHT22;7018;50.838;4.226;2022-09-03T14:23:39;26.70;99.90
13896;DHT22;7018;50.838;4.226;2022-09-03T14:26:17;26.50;99.90
13896;DHT22;7018;50.838;4.226;2022-09-03T14:29:13;26.30;99.90
13896;DHT22;7018;50.838;4.226;2022-09-03T14:32:21;26.20;99.90
13896;DHT22;7018;50.838;4.226;2022-09-03T14:37:41;25.60;99.90
13896;DHT22;7018;50.838;4.226;2022-09-03T14:40:42;25.50;99.90
13896;DHT22;7018;50.838;4.226;2022-09-03T14:51:38;25.00;99.90
13896;DHT22;7018;50.838;4.226;2022-09-03T14:54:42;24.90;99.90
13896;DHT22;7018;50.838;4.226;2022-09-03T14:57:35;24.90;99.90
13896;DHT22;7018;50.838;4.226;2022-09-03T15:00:20;25.10;99.90
13896;DHT22;7018;50.838;4.226;2022-09-03T15:11:18;25.40;99.90
13896;DHT22;7018;50.838;4.226;2022-09-03T15:13:53;25.70;99.90
13896;DHT22;7018;50.838;4.226;2022-09-03T15:19:41;26.00;99.90
13896;DHT22;7018;50.838;4.226;2022-09-03T15:22:26;26.20;99.90
13896;DHT22;7018;50.838;4.226;2022-09-03T15:38:54;26.60;99.90
13896;DHT22;7018;50.838;4.226;2022-09-03T15:44:14;26.90;99.90
13896;DHT22;7018;50.838;4.226;2022-09-03T15:58:22;27.40;99.90
13896;DHT22;7018;50.838;4.226;2022-09-03T16:00:54;27.30;99.90
13896;DHT22;7018;50.838;4.226;2022-09-03T16:03:38;27.10;99.90
13896;DHT22;7018;50.838;4.226;2022-09-03T16:06:36;27.00;99.90
13896;DHT22;7018;50.838;4.226;2022-09-03T16:09:17;27.00;99.90
13896;DHT22;7018;50.838;4.226;2022-09-03T16:12:03;27.10;99.90
13896;DHT22;7018;50.838;4.226;2022-09-03T16:14:42;27.00;99.90
13896;DHT22;7018;50.838;4.226;2022-09-03T16:17:30;26.80;99.90
13896;DHT22;7018;50.838;4.226;2022-09-03T16:20:05;26.80;99.90
13896;DHT22;7018;50.838;4.226;2022-09-03T16:28:25;26.90;99.90
13896;DHT22;7018;50.838;4.226;2022-09-03T16:31:03;26.80;99.90
13896;DHT22;7018;50.838;4.226;2022-09-03T16:36:42;26.70;99.90
13896;DHT22;7018;50.838;4.226;2022-09-03T16:50:50;26.30;99.90
13896;DHT22;7018;50.838;4.226;2022-09-03T17:05:08;26.10;99.90
13896;DHT22;7018;50.838;4.226;2022-09-03T17:10:38;25.80;99.90
13896;DHT22;7018;50.838;4.226;2022-09-03T17:13:45;25.50;99.90
13896;DHT22;7018;50.838;4.226;2022-09-03T17:19:13;25.10;99.90
13896;DHT22;7018;50.838;4.226;2022-09-03T17:24:42;24.90;99.90
13896;DHT22;7018;50.838;4.226;2022-09-03T17:27:38;24.80;99.90
13896;DHT22;7018;50.838;4.226;2022-09-03T17:30:19;24.70;99.90
13896;DHT22;7018;50.838;4.226;2022-09-03T17:32:57;24.70;99.90
13896;DHT22;7018;50.838;4.226;2022-09-03T17:43:41;24.50;99.90
13896;DHT22;7018;50.838;4.226;2022-09-03T17:49:25;24.50;99.90
13896;DHT22;7018;50.838;4.226;2022-09-03T17:52:05;24.40;99.90
13896;DHT22;7018;50.838;4.226;2022-09-03T17:54:42;24.40;99.90
13896;DHT22;7018;50.838;4.226;2022-09-03T17:58:02;24.40;99.90
13896;DHT22;7018;50.838;4.226;2022-09-03T18:00:23;24.30;99.90
13896;DHT22;7018;50.838;4.226;2022-09-03T18:03:21;24.30;99.90
13896;DHT22;7018;50.838;4.226;2022-09-03T18:05:54;24.30;99.90
13896;DHT22;7018;50.838;4.226;2022-09-03T18:09:03;24.20;99.90
13896;DHT22;7018;50.838;4.226;2022-09-03T18:11:38;24.10;99.90
13896;DHT22;7018;50.838;4.226;2022-09-03T18:17:04;23.80;99.90
13896;DHT22;7018;50.838;4.226;2022-09-03T18:19:38;23.60;99.90
13896;DHT22;7018;50.838;4.226;2022-09-03T18:22:35;23.50;99.90
13896;DHT22;7018;50.838;4.226;2022-09-03T18:25:24;23.50;99.90
13896;DHT22;7018;50.838;4.226;2022-09-03T18:28:14;23.40;99.90
13896;DHT22;7018;50.838;4.226;2022-09-03T18:31:02;23.30;99.90
13896;DHT22;7018;50.838;4.226;2022-09-03T18:33:48;23.20;99.90
13896;DHT22;7018;50.838;4.226;2022-09-03T18:36:35;23.20;99.90
13896;DHT22;7018;50.838;4.226;2022-09-03T18:39:26;23.20;99.90
13896;DHT22;7018;50.838;4.226;2022-09-03T18:47:59;22.80;99.90
13896;DHT22;7018;50.838;4.226;2022-09-03T18:50:52;22.80;99.90
13896;DHT22;7018;50.838;4.226;2022-09-03T18:56:44;22.50;99.90
13896;DHT22;7018;50.838;4.226;2022-09-03T18:59:54;22.50;99.90
13896;DHT22;7018;50.838;4.226;2022-09-03T19:08:34;22.30;99.90
13896;DHT22;7018;50.838;4.226;2022-09-03T19:11:33;22.20;99.90
13896;DHT22;7018;50.838;4.226;2022-09-03T19:14:58;22.10;99.90
13896;DHT22;7018;50.838;4.226;2022-09-03T19:21:01;22.10;99.90
13896;DHT22;7018;50.838;4.226;2022-09-03T19:23:48;22.00;99.90
13896;DHT22;7018;50.838;4.226;2022-09-03T19:26:45;22.00;99.90
13896;DHT22;7018;50.838;4.226;2022-09-03T19:36:16;21.90;99.90
13896;DHT22;7018;50.838;4.226;2022-09-03T19:42:03;21.80;99.90
13896;DHT22;7018;50.838;4.226;2022-09-03T19:48:26;21.60;99.90
13896;DHT22;7018;50.838;4.226;2022-09-03T19:51:38;21.60;99.90
13896;DHT22;7018;50.838;4.226;2022-09-03T19:54:29;21.50;99.90
13896;DHT22;7018;50.838;4.226;2022-09-03T19:57:16;21.40;99.90
13896;DHT22;7018;50.838;4.226;2022-09-03T20:00:05;21.40;99.90
13896;DHT22;7018;50.838;4.226;2022-09-03T20:02:51;21.40;99.90
13896;DHT22;7018;50.838;4.226;2022-09-03T20:05:37;21.40;99.90
13896;DHT22;7018;50.838;4.226;2022-09-03T20:08:24;21.30;99.90
13896;DHT22;7018;50.838;4.226;2022-09-03T20:11:17;21.30;99.90
13896;DHT22;7018;50.838;4.226;2022-09-03T20:13:46;21.20;99.90
13896;DHT22;7018;50.838;4.226;2022-09-03T20:16:53;21.20;99.90
13896;DHT22;7018;50.838;4.226;2022-09-03T20:22:38;21.10;99.90
13896;DHT22;7018;50.838;4.226;2022-09-03T20:24:55;21.10;99.90
13896;DHT22;7018;50.838;4.226;2022-09-03T20:27:39;21.20;99.90
13896;DHT22;7018;50.838;4.226;2022-09-03T20:30:20;21.10;99.90
13896;DHT22;7018;50.838;4.226;2022-09-03T20:41:22;21.00;99.90
13896;DHT22;7018;50.838;4.226;2022-09-03T20:43:58;20.90;99.90
13896;DHT22;7018;50.838;4.226;2022-09-03T20:52:10;20.90;99.90
13896;DHT22;7018;50.838;4.226;2022-09-03T20:55:28;20.80;99.90
13896;DHT22;7018;50.838;4.226;2022-09-03T20:58:26;20.70;99.90
13896;DHT22;7018;50.838;4.226;2022-09-03T21:01:03;20.60;99.90
13896;DHT22;7018;50.838;4.226;2022-09-03T21:14:33;20.60;99.90
13896;DHT22;7018;50.838;4.226;2022-09-03T21:17:19;20.60;99.90
13896;DHT22;7018;50.838;4.226;2022-09-03T21:20:16;20.60;99.90
13896;DHT22;7018;50.838;4.226;2022-09-03T21:23:05;20.60;99.90
13896;DHT22;7018;50.838;4.226;2022-09-03T21:28:35;20.50;99.90
13896;DHT22;7018;50.838;4.226;2022-09-03T21:31:26;20.30;99.90
13896;DHT22;7018;50.838;4.226;2022-09-03T21:34:08;20.20;99.90
13896;DHT22;7018;50.838;4.226;2022-09-03T21:36:38;20.10;99.90
13896;DHT22;7018;50.838;4.226;2022-09-03T21:39:35;20.20;99.90
13896;DHT22;7018;50.838;4.226;2022-09-03T21:42:02;20.10;99.90
13896;DHT22;7018;50.838;4.226;2022-09-03T21:47:42;20.00;99.90
13896;DHT22;7018;50.838;4.226;2022-09-03T21:50:20;20.00;99.90
13896;DHT22;7018;50.838;4.226;2022-09-03T21:53:06;20.00;99.90
13896;DHT22;7018;50.838;4.226;2022-09-03T22:01:53;19.90;99.90
13896;DHT22;7018;50.838;4.226;2022-09-03T22:04:26;19.80;99.90
13896;DHT22;7018;50.838;4.226;2022-09-03T22:07:02;19.90;99.90
13896;DHT22;7018;50.838;4.226;2022-09-03T22:12:15;19.80;99.90
13896;DHT22;7018;50.838;4.226;2022-09-03T22:14:48;19.80;99.90
13896;DHT22;7018;50.838;4.226;2022-09-03T22:20:09;19.80;99.90
13896;DHT22;7018;50.838;4.226;2022-09-03T22:22:55;19.80;99.90
13896;DHT22;7018;50.838;4.226;2022-09-03T22:36:46;19.80;99.90
13896;DHT22;7018;50.838;4.226;2022-09-03T22:39:38;19.80;99.90